sensor_id;sensor_type;location;lat;lon;timestamp;pressure;altitude;pressure_sealevel;temperature;humidity
16664;BME280;8445;51.270;9.434;2024-02-21T00:01:08;100163.97;;;7.90;74.97
16664;BME280;8445;51.270;9.434;2024-02-21T00:03:34;100175.91;;;7.94;74.83
16664;BME280;8445;51.270;9.434;2024-02-21T00:06:00;100176.59;;;7.96;74.98
16664;BME280;8445;51.270;9.434;2024-02-21T00:08:26;100175.25;;;7.92;74.99
16664;BME280;8445;51.270;9.434;2024-02-21T00:10:51;100177.22;;;7.90;75.10
16664;BME280;8445;51.270;9.434;2024-02-21T00:13:18;100182.16;;;7.85;74.99
16664;BME280;8445;51.270;9.434;2024-02-21T00:15:43;100170.84;;;7.75;74.76
16664;BME280;8445;51.270;9.434;2024-02-21T00:18:09;100184.53;;;7.70;74.67
16664;BME280;8445;51.270;9.434;2024-02-21T00:20:36;100189.00;;;7.69;74.77
16664;BME280;8445;51.270;9.434;2024-02-21T00:23:02;100213.25;;;7.75;74.84
16664;BME280;8445;51.270;9.434;2024-02-21T00:25:29;100203.25;;;7.68;75.22
16664;BME280;8445;51.270;9.434;2024-02-21T00:27:54;100201.59;;;7.67;75.61
16664;BME280;8445;51.270;9.434;2024-02-21T00:30:21;100173.66;;;7.55;75.43
16664;BME280;8445;51.270;9.434;2024-02-21T00:32:47;100188.19;;;7.69;75.82
16664;BME280;8445;51.270;9.434;2024-02-21T00:35:14;100177.56;;;7.69;76.17
16664;BME280;8445;51.270;9.434;2024-02-21T00:37:40;100177.91;;;7.66;76.33
16664;BME280;8445;51.270;9.434;2024-02-21T00:40:06;100170.63;;;7.68;76.09
16664;BME280;8445;51.270;9.434;2024-02-21T00:42:32;100172.13;;;7.70;76.10
16664;BME280;8445;51.270;9.434;2024-02-21T00:44:58;100161.16;;;7.65;76.00
16664;BME280;8445;51.270;9.434;2024-02-21T00:47:24;100169.47;;;7.70;75.81
16664;BME280;8445;51.270;9.434;2024-02-21T00:49:50;100164.69;;;7.74;75.98
16664;BME280;8445;51.270;9.434;2024-02-21T00:52:16;100167.19;;;7.76;75.79
16664;BME280;8445;51.270;9.434;2024-02-21T00:54:42;100155.75;;;7.75;75.94
16664;BME280;8445;51.270;9.434;2024-02-21T00:57:08;100166.88;;;7.79;76.26
16664;BME280;8445;51.270;9.434;2024-02-21T00:59:34;100146.75;;;7.68;76.11
16664;BME280;8445;51.270;9.434;2024-02-21T01:02:00;100147.25;;;7.71;75.96
16664;BME280;8445;51.270;9.434;2024-02-21T01:04:26;100143.34;;;7.76;75.93
16664;BME280;8445;51.270;9.434;2024-02-21T01:06:51;100150.50;;;7.83;75.86
16664;BME280;8445;51.270;9.434;2024-02-21T01:09:17;100149.34;;;7.86;76.16
16664;BME280;8445;51.270;9.434;2024-02-21T01:11:43;100137.88;;;7.77;75.81
16664;BME280;8445;51.270;9.434;2024-02-21T01:14:09;100153.38;;;7.90;75.82
16664;BME280;8445;51.270;9.434;2024-02-21T01:16:36;100133.59;;;7.84;75.46
16664;BME280;8445;51.270;9.434;2024-02-21T01:19:02;100136.91;;;7.86;75.78
16664;BME280;8445;51.270;9.434;2024-02-21T01:21:28;100129.50;;;7.90;75.94
16664;BME280;8445;51.270;9.434;2024-02-21T01:23:54;100143.63;;;7.98;75.60
16664;BME280;8445;51.270;9.434;2024-02-21T01:26:20;100134.81;;;7.98;75.69
16664;BME280;8445;51.270;9.434;2024-02-21T01:28:46;100134.50;;;8.01;75.96
16664;BME280;8445;51.270;9.434;2024-02-21T01:31:12;100113.09;;;7.94;76.03
16664;BME280;8445;51.270;9.434;2024-02-21T01:33:38;100127.41;;;8.02;75.97
16664;BME280;8445;51.270;9.434;2024-02-21T01:36:05;100134.22;;;8.04;75.73
16664;BME280;8445;51.270;9.434;2024-02-21T01:38:34;100112.78;;;7.97;76.09
16664;BME280;8445;51.270;9.434;2024-02-21T01:41:00;100106.19;;;8.02;76.10
16664;BME280;8445;51.270;9.434;2024-02-21T01:43:26;100124.59;;;8.11;76.01
16664;BME280;8445;51.270;9.434;2024-02-21T01:45:55;100116.66;;;8.11;76.20
16664;BME280;8445;51.270;9.434;2024-02-21T01:48:25;100083.44;;;7.99;76.51
16664;BME280;8445;51.270;9.434;2024-02-21T01:50:54;100096.75;;;8.07;76.26
16664;BME280;8445;51.270;9.434;2024-02-21T01:53:23;100086.63;;;8.03;76.33
16664;BME280;8445;51.270;9.434;2024-02-21T01:55:51;100098.91;;;8.12;76.18
16664;BME280;8445;51.270;9.434;2024-02-21T01:58:18;100099.72;;;8.04;76.25
16664;BME280;8445;51.270;9.434;2024-02-21T02:00:47;100098.91;;;8.04;75.99
16664;BME280;8445;51.270;9.434;2024-02-21T02:03:14;100095.41;;;8.03;76.49
16664;BME280;8445;51.270;9.434;2024-02-21T02:05:47;100095.41;;;8.03;76.12
16664;BME280;8445;51.270;9.434;2024-02-21T02:08:18;100099.41;;;8.07;76.47
16664;BME280;8445;51.270;9.434;2024-02-21T02:10:45;100092.09;;;8.09;76.21
16664;BME280;8445;51.270;9.434;2024-02-21T02:13:11;100091.13;;;8.10;76.56
16664;BME280;8445;51.270;9.434;2024-02-21T02:15:57;100075.19;;;8.10;76.33
16664;BME280;8445;51.270;9.434;2024-02-21T02:18:23;100055.78;;;8.02;76.30
16664;BME280;8445;51.270;9.434;2024-02-21T02:20:49;100069.88;;;8.10;76.18
16664;BME280;8445;51.270;9.434;2024-02-21T02:23:25;100039.00;;;8.01;76.55
16664;BME280;8445;51.270;9.434;2024-02-21T02:25:51;100033.69;;;7.93;76.48
16664;BME280;8445;51.270;9.434;2024-02-21T02:28:18;100058.78;;;8.07;76.16
16664;BME280;8445;51.270;9.434;2024-02-21T02:30:45;100056.94;;;8.07;76.47
16664;BME280;8445;51.270;9.434;2024-02-21T02:33:11;100050.66;;;8.08;76.27
16664;BME280;8445;51.270;9.434;2024-02-21T02:35:37;100041.03;;;8.07;76.15
16664;BME280;8445;51.270;9.434;2024-02-21T02:38:04;100041.69;;;8.09;76.41
16664;BME280;8445;51.270;9.434;2024-02-21T02:40:32;100022.13;;;8.02;76.67
16664;BME280;8445;51.270;9.434;2024-02-21T02:42:58;100019.16;;;8.05;76.47
16664;BME280;8445;51.270;9.434;2024-02-21T02:45:26;100025.13;;;8.07;76.31
16664;BME280;8445;51.270;9.434;2024-02-21T02:47:56;100018.66;;;8.02;76.29
16664;BME280;8445;51.270;9.434;2024-02-21T02:50:27;100024.44;;;8.05;76.18
16664;BME280;8445;51.270;9.434;2024-02-21T02:52:56;100013.84;;;8.05;76.51
16664;BME280;8445;51.270;9.434;2024-02-21T02:55:22;100011.34;;;8.04;76.55
16664;BME280;8445;51.270;9.434;2024-02-21T02:57:48;100008.34;;;7.98;76.47
16664;BME280;8445;51.270;9.434;2024-02-21T03:00:15;100026.28;;;8.05;76.41
16664;BME280;8445;51.270;9.434;2024-02-21T03:02:43;100006.88;;;8.04;76.42
16664;BME280;8445;51.270;9.434;2024-02-21T03:05:21;99990.59;;;7.99;76.39
16664;BME280;8445;51.270;9.434;2024-02-21T03:07:48;99991.59;;;7.98;76.34
16664;BME280;8445;51.270;9.434;2024-02-21T03:10:15;100011.84;;;8.07;76.42
16664;BME280;8445;51.270;9.434;2024-02-21T03:12:42;99994.91;;;8.00;76.36
16664;BME280;8445;51.270;9.434;2024-02-21T03:15:08;99979.66;;;7.94;76.30
16664;BME280;8445;51.270;9.434;2024-02-21T03:17:34;100001.41;;;8.06;76.33
16664;BME280;8445;51.270;9.434;2024-02-21T03:20:04;99978.16;;;7.99;76.52
16664;BME280;8445;51.270;9.434;2024-02-21T03:22:37;99984.81;;;8.04;76.24
16664;BME280;8445;51.270;9.434;2024-02-21T03:25:04;99993.28;;;8.07;76.46
16664;BME280;8445;51.270;9.434;2024-02-21T03:27:30;99984.66;;;8.05;76.62
16664;BME280;8445;51.270;9.434;2024-02-21T03:29:58;99993.44;;;8.06;76.58
16664;BME280;8445;51.270;9.434;2024-02-21T03:32:24;99982.97;;;7.96;76.91
16664;BME280;8445;51.270;9.434;2024-02-21T03:34:50;99990.44;;;8.00;76.29
16664;BME280;8445;51.270;9.434;2024-02-21T03:37:16;99990.97;;;8.04;76.53
16664;BME280;8445;51.270;9.434;2024-02-21T03:39:42;99991.47;;;8.08;76.44
16664;BME280;8445;51.270;9.434;2024-02-21T03:42:08;99993.28;;;8.07;76.43
16664;BME280;8445;51.270;9.434;2024-02-21T03:44:34;99988.97;;;8.06;76.53
16664;BME280;8445;51.270;9.434;2024-02-21T03:47:00;99982.63;;;7.99;76.66
16664;BME280;8445;51.270;9.434;2024-02-21T03:49:26;99996.59;;;8.09;76.27
16664;BME280;8445;51.270;9.434;2024-02-21T03:51:52;99991.47;;;8.08;76.38
16664;BME280;8445;51.270;9.434;2024-02-21T03:54:19;99986.66;;;8.03;76.52
16664;BME280;8445;51.270;9.434;2024-02-21T03:56:45;99974.19;;;7.95;76.32
16664;BME280;8445;51.270;9.434;2024-02-21T03:59:13;100000.41;;;8.07;76.45
16664;BME280;8445;51.270;9.434;2024-02-21T04:01:39;99995.78;;;8.09;76.23
16664;BME280;8445;51.270;9.434;2024-02-21T04:04:05;99994.59;;;8.11;76.14
16664;BME280;8445;51.270;9.434;2024-02-21T04:06:31;99976.38;;;8.08;76.77
16664;BME280;8445;51.270;9.434;2024-02-21T04:08:57;99973.72;;;8.08;76.82
16664;BME280;8445;51.270;9.434;2024-02-21T04:11:23;99967.75;;;8.06;76.42
16664;BME280;8445;51.270;9.434;2024-02-21T04:13:49;99980.03;;;8.07;76.76
16664;BME280;8445;51.270;9.434;2024-02-21T04:16:17;99973.06;;;8.06;76.57
16664;BME280;8445;51.270;9.434;2024-02-21T04:18:43;99958.13;;;8.05;76.64
16664;BME280;8445;51.270;9.434;2024-02-21T04:21:10;99936.91;;;8.05;76.66
16664;BME280;8445;51.270;9.434;2024-02-21T04:23:36;99925.94;;;8.00;76.92
16664;BME280;8445;51.270;9.434;2024-02-21T04:26:02;99938.22;;;7.93;76.78
16664;BME280;8445;51.270;9.434;2024-02-21T04:28:28;99944.84;;;7.89;76.89
16664;BME280;8445;51.270;9.434;2024-02-21T04:30:53;99935.19;;;7.80;77.12
16664;BME280;8445;51.270;9.434;2024-02-21T04:33:19;99926.75;;;7.76;77.17
16664;BME280;8445;51.270;9.434;2024-02-21T04:35:45;99933.53;;;7.79;77.43
16664;BME280;8445;51.270;9.434;2024-02-21T04:38:11;99944.13;;;7.79;77.28
16664;BME280;8445;51.270;9.434;2024-02-21T04:40:37;99928.88;;;7.72;77.25
16664;BME280;8445;51.270;9.434;2024-02-21T04:43:03;99908.44;;;7.57;77.49
16664;BME280;8445;51.270;9.434;2024-02-21T04:45:29;99925.88;;;7.67;77.68
16664;BME280;8445;51.270;9.434;2024-02-21T04:47:55;99928.19;;;7.62;77.82
16664;BME280;8445;51.270;9.434;2024-02-21T04:50:21;99910.59;;;7.53;77.47
16664;BME280;8445;51.270;9.434;2024-02-21T04:52:47;99920.84;;;7.48;77.71
16664;BME280;8445;51.270;9.434;2024-02-21T04:55:13;99904.88;;;7.32;77.98
16664;BME280;8445;51.270;9.434;2024-02-21T04:57:39;99893.25;;;7.25;78.12
16664;BME280;8445;51.270;9.434;2024-02-21T05:00:06;99882.28;;;7.11;78.40
16664;BME280;8445;51.270;9.434;2024-02-21T05:02:32;99888.19;;;7.05;78.11
16664;BME280;8445;51.270;9.434;2024-02-21T05:04:58;99902.63;;;7.11;78.40
16664;BME280;8445;51.270;9.434;2024-02-21T05:07:24;99906.28;;;7.10;79.14
16664;BME280;8445;51.270;9.434;2024-02-21T05:09:51;99904.09;;;7.05;79.08
16664;BME280;8445;51.270;9.434;2024-02-21T05:12:17;99897.09;;;6.96;79.07
16664;BME280;8445;51.270;9.434;2024-02-21T05:14:43;99910.22;;;7.06;79.29
16664;BME280;8445;51.270;9.434;2024-02-21T05:17:08;99915.00;;;7.02;79.49
16664;BME280;8445;51.270;9.434;2024-02-21T05:19:34;99913.84;;;7.05;79.41
16664;BME280;8445;51.270;9.434;2024-02-21T05:22:00;99892.78;;;6.95;79.51
16664;BME280;8445;51.270;9.434;2024-02-21T05:24:26;99927.97;;;7.14;79.27
16664;BME280;8445;51.270;9.434;2024-02-21T05:26:53;99936.25;;;7.19;79.33
16664;BME280;8445;51.270;9.434;2024-02-21T05:29:19;99940.94;;;7.25;79.33
16664;BME280;8445;51.270;9.434;2024-02-21T05:34:18;99954.91;;;7.35;79.08
16664;BME280;8445;51.270;9.434;2024-02-21T05:36:44;99948.97;;;7.41;79.10
16664;BME280;8445;51.270;9.434;2024-02-21T05:39:10;99952.13;;;7.45;78.96
16664;BME280;8445;51.270;9.434;2024-02-21T05:41:36;99954.00;;;7.52;78.82
16664;BME280;8445;51.270;9.434;2024-02-21T05:44:02;99951.69;;;7.57;78.46
16664;BME280;8445;51.270;9.434;2024-02-21T05:46:28;99955.00;;;7.59;78.36
16664;BME280;8445;51.270;9.434;2024-02-21T05:48:54;99961.00;;;7.61;78.26
16664;BME280;8445;51.270;9.434;2024-02-21T05:51:20;99957.19;;;7.64;78.41
16664;BME280;8445;51.270;9.434;2024-02-21T05:53:46;99957.53;;;7.69;78.03
16664;BME280;8445;51.270;9.434;2024-02-21T05:56:13;99948.09;;;7.66;78.11
16664;BME280;8445;51.270;9.434;2024-02-21T05:58:40;99954.03;;;7.68;78.01
16664;BME280;8445;51.270;9.434;2024-02-21T06:01:07;99948.59;;;7.70;78.22
16664;BME280;8445;51.270;9.434;2024-02-21T06:03:34;99944.78;;;7.72;78.04
16664;BME280;8445;51.270;9.434;2024-02-21T06:06:00;99960.56;;;7.82;77.85
16664;BME280;8445;51.270;9.434;2024-02-21T06:08:26;99934.50;;;7.69;78.21
16664;BME280;8445;51.270;9.434;2024-02-21T06:10:52;99948.44;;;7.80;78.03
16664;BME280;8445;51.270;9.434;2024-02-21T06:13:21;99936.03;;;7.80;77.93
16664;BME280;8445;51.270;9.434;2024-02-21T06:15:47;99938.50;;;7.82;77.59
16664;BME280;8445;51.270;9.434;2024-02-21T06:18:13;99944.50;;;7.92;77.90
16664;BME280;8445;51.270;9.434;2024-02-21T06:20:39;99933.91;;;7.92;77.77
16664;BME280;8445;51.270;9.434;2024-02-21T06:23:07;99942.53;;;7.94;77.67
16664;BME280;8445;51.270;9.434;2024-02-21T06:25:32;99918.66;;;7.94;77.34
16664;BME280;8445;51.270;9.434;2024-02-21T06:27:58;99914.66;;;7.98;77.61
16664;BME280;8445;51.270;9.434;2024-02-21T06:30:24;99918.16;;;7.98;77.76
16664;BME280;8445;51.270;9.434;2024-02-21T06:32:50;99915.34;;;8.00;77.35
16664;BME280;8445;51.270;9.434;2024-02-21T06:35:16;99918.81;;;8.00;77.46
16664;BME280;8445;51.270;9.434;2024-02-21T06:37:42;99917.69;;;8.03;77.24
16664;BME280;8445;51.270;9.434;2024-02-21T06:40:11;99919.63;;;8.01;77.20
16664;BME280;8445;51.270;9.434;2024-02-21T06:42:37;99900.75;;;7.96;77.28
16664;BME280;8445;51.270;9.434;2024-02-21T06:45:03;99918.34;;;8.05;77.12
16664;BME280;8445;51.270;9.434;2024-02-21T06:47:31;99924.47;;;8.06;77.26
16664;BME280;8445;51.270;9.434;2024-02-21T06:49:57;99916.16;;;8.00;77.24
16664;BME280;8445;51.270;9.434;2024-02-21T06:52:23;99925.78;;;8.10;77.31
16664;BME280;8445;51.270;9.434;2024-02-21T06:54:50;99915.03;;;8.03;77.34
16664;BME280;8445;51.270;9.434;2024-02-21T06:57:16;99929.13;;;8.12;77.04
16664;BME280;8445;51.270;9.434;2024-02-21T06:59:42;99914.03;;;8.04;76.94
16664;BME280;8445;51.270;9.434;2024-02-21T07:02:12;99926.16;;;8.15;76.85
16664;BME280;8445;51.270;9.434;2024-02-21T07:04:38;99921.69;;;8.15;76.86
16664;BME280;8445;51.270;9.434;2024-02-21T07:07:04;99923.16;;;8.18;77.15
16664;BME280;8445;51.270;9.434;2024-02-21T07:09:30;99896.63;;;8.18;76.71
16664;BME280;8445;51.270;9.434;2024-02-21T07:11:58;99893.47;;;8.22;76.79
16664;BME280;8445;51.270;9.434;2024-02-21T07:14:25;99860.31;;;8.18;76.57
16664;BME280;8445;51.270;9.434;2024-02-21T07:16:51;99878.56;;;8.29;76.34
16664;BME280;8445;51.270;9.434;2024-02-21T07:19:17;99864.94;;;8.24;76.27
16664;BME280;8445;51.270;9.434;2024-02-21T07:21:43;99881.41;;;8.36;76.41
16664;BME280;8445;51.270;9.434;2024-02-21T07:24:09;99874.09;;;8.38;76.27
16664;BME280;8445;51.270;9.434;2024-02-21T07:26:35;99867.47;;;8.42;76.34
16664;BME280;8445;51.270;9.434;2024-02-21T07:29:01;99859.16;;;8.37;76.05
16664;BME280;8445;51.270;9.434;2024-02-21T07:31:27;99880.25;;;8.47;76.13
16664;BME280;8445;51.270;9.434;2024-02-21T07:33:53;99875.28;;;8.44;75.95
16664;BME280;8445;51.270;9.434;2024-02-21T07:36:31;99866.31;;;8.45;76.01
16664;BME280;8445;51.270;9.434;2024-02-21T07:38:57;99854.19;;;8.34;76.09
16664;BME280;8445;51.270;9.434;2024-02-21T07:41:22;99863.47;;;8.38;75.90
16664;BME280;8445;51.270;9.434;2024-02-21T07:43:48;99852.50;;;8.33;76.01
16664;BME280;8445;51.270;9.434;2024-02-21T07:46:14;99865.31;;;8.38;76.01
16664;BME280;8445;51.270;9.434;2024-02-21T07:48:40;99866.78;;;8.40;75.92
16664;BME280;8445;51.270;9.434;2024-02-21T07:51:06;99850.69;;;8.34;76.04
16664;BME280;8445;51.270;9.434;2024-02-21T07:53:32;99856.69;;;8.44;76.00
16664;BME280;8445;51.270;9.434;2024-02-21T07:55:58;99861.31;;;8.50;75.95
16664;BME280;8445;51.270;9.434;2024-02-21T07:58:24;99851.22;;;8.45;75.76
16664;BME280;8445;51.270;9.434;2024-02-21T08:00:50;99867.78;;;8.55;75.91
16664;BME280;8445;51.270;9.434;2024-02-21T08:03:15;99864.97;;;8.57;75.46
16664;BME280;8445;51.270;9.434;2024-02-21T08:05:44;99866.28;;;8.61;75.38
16664;BME280;8445;51.270;9.434;2024-02-21T08:08:09;99871.72;;;8.68;75.61
16664;BME280;8445;51.270;9.434;2024-02-21T08:10:35;99856.13;;;8.65;75.36
16664;BME280;8445;51.270;9.434;2024-02-21T08:13:01;99850.31;;;8.77;75.40
16664;BME280;8445;51.270;9.434;2024-02-21T08:15:27;99844.16;;;8.85;75.48
16664;BME280;8445;51.270;9.434;2024-02-21T08:17:58;99834.66;;;8.91;75.50
16664;BME280;8445;51.270;9.434;2024-02-21T08:20:27;99843.56;;;9.06;75.09
16664;BME280;8445;51.270;9.434;2024-02-21T08:22:53;99848.22;;;9.12;74.84
16664;BME280;8445;51.270;9.434;2024-02-21T08:25:19;99825.31;;;9.11;74.84
16664;BME280;8445;51.270;9.434;2024-02-21T08:27:45;99834.19;;;9.26;74.46
16664;BME280;8445;51.270;9.434;2024-02-21T08:30:12;99824.84;;;9.30;74.24
16664;BME280;8445;51.270;9.434;2024-02-21T08:32:38;99805.06;;;9.33;73.98
16664;BME280;8445;51.270;9.434;2024-02-21T08:35:04;99825.13;;;9.43;73.50
16664;BME280;8445;51.270;9.434;2024-02-21T08:37:31;99823.25;;;9.52;73.06
16664;BME280;8445;51.270;9.434;2024-02-21T08:39:56;99830.69;;;9.57;73.40
16664;BME280;8445;51.270;9.434;2024-02-21T08:42:22;99829.19;;;9.62;73.58
16664;BME280;8445;51.270;9.434;2024-02-21T08:44:49;99816.53;;;9.64;72.74
16664;BME280;8445;51.270;9.434;2024-02-21T08:47:15;99814.16;;;9.69;72.82
16664;BME280;8445;51.270;9.434;2024-02-21T08:49:41;99815.22;;;9.83;72.15
16664;BME280;8445;51.270;9.434;2024-02-21T08:52:07;99821.19;;;9.85;72.39
16664;BME280;8445;51.270;9.434;2024-02-21T08:54:33;99820.78;;;9.96;71.96
16664;BME280;8445;51.270;9.434;2024-02-21T08:56:59;99798.94;;;10.01;71.74
16664;BME280;8445;51.270;9.434;2024-02-21T08:59:25;99810.47;;;10.16;71.33
16664;BME280;8445;51.270;9.434;2024-02-21T09:01:52;99782.28;;;10.07;71.42
16664;BME280;8445;51.270;9.434;2024-02-21T09:04:20;99808.75;;;10.23;71.13
16664;BME280;8445;51.270;9.434;2024-02-21T09:06:46;99798.97;;;10.39;71.05
16664;BME280;8445;51.270;9.434;2024-02-21T09:09:13;99780.16;;;10.55;70.76
16664;BME280;8445;51.270;9.434;2024-02-21T09:11:39;99790.53;;;10.79;69.93
16664;BME280;8445;51.270;9.434;2024-02-21T09:14:06;99778.41;;;10.91;69.71
16664;BME280;8445;51.270;9.434;2024-02-21T09:16:32;99775.72;;;11.06;69.39
16664;BME280;8445;51.270;9.434;2024-02-21T09:18:58;99766.78;;;11.14;68.71
16664;BME280;8445;51.270;9.434;2024-02-21T09:21:27;99762.81;;;11.24;68.64
16664;BME280;8445;51.270;9.434;2024-02-21T09:23:53;99765.63;;;11.38;68.67
16664;BME280;8445;51.270;9.434;2024-02-21T09:26:20;99769.69;;;11.55;67.55
16664;BME280;8445;51.270;9.434;2024-02-21T09:28:46;99763.88;;;11.66;67.22
16664;BME280;8445;51.270;9.434;2024-02-21T09:31:12;99762.19;;;11.80;67.12
16664;BME280;8445;51.270;9.434;2024-02-21T09:33:39;99763.94;;;11.94;66.71
16664;BME280;8445;51.270;9.434;2024-02-21T09:36:07;99751.66;;;12.00;66.22
16664;BME280;8445;51.270;9.434;2024-02-21T09:38:33;99754.41;;;12.13;65.12
16664;BME280;8445;51.270;9.434;2024-02-21T09:41:12;99755.72;;;12.17;65.31
16664;BME280;8445;51.270;9.434;2024-02-21T09:43:41;99757.16;;;12.20;65.24
16664;BME280;8445;51.270;9.434;2024-02-21T09:46:13;99760.84;;;12.19;64.62
16664;BME280;8445;51.270;9.434;2024-02-21T09:49:21;99766.84;;;12.27;64.68
16664;BME280;8445;51.270;9.434;2024-02-21T09:51:53;99764.44;;;12.32;63.73
16664;BME280;8445;51.270;9.434;2024-02-21T09:54:19;99751.72;;;12.34;64.23
16664;BME280;8445;51.270;9.434;2024-02-21T09:56:47;99763.50;;;12.47;63.75
16664;BME280;8445;51.270;9.434;2024-02-21T09:59:16;99753.25;;;12.50;63.12
16664;BME280;8445;51.270;9.434;2024-02-21T10:01:43;99739.22;;;12.41;62.43
16664;BME280;8445;51.270;9.434;2024-02-21T10:04:10;99740.19;;;12.34;61.65
16664;BME280;8445;51.270;9.434;2024-02-21T10:06:36;99754.31;;;12.28;61.38
16664;BME280;8445;51.270;9.434;2024-02-21T10:09:03;99766.47;;;12.30;61.90
16664;BME280;8445;51.270;9.434;2024-02-21T10:11:29;99769.38;;;12.35;62.41
16664;BME280;8445;51.270;9.434;2024-02-21T10:14:06;99757.72;;;12.43;62.68
16664;BME280;8445;51.270;9.434;2024-02-21T10:16:33;99737.00;;;12.52;62.98
16664;BME280;8445;51.270;9.434;2024-02-21T10:18:59;99739.41;;;12.75;62.91
16664;BME280;8445;51.270;9.434;2024-02-21T10:21:25;99740.69;;;12.85;62.12
16664;BME280;8445;51.270;9.434;2024-02-21T10:23:52;99736.19;;;12.92;62.17
16664;BME280;8445;51.270;9.434;2024-02-21T10:26:20;99729.66;;;13.08;61.32
16664;BME280;8445;51.270;9.434;2024-02-21T10:28:47;99731.78;;;13.19;61.08
16664;BME280;8445;51.270;9.434;2024-02-21T10:34:01;99716.19;;;13.36;61.31
16664;BME280;8445;51.270;9.434;2024-02-21T10:36:31;99723.22;;;13.50;60.49
16664;BME280;8445;51.270;9.434;2024-02-21T10:38:59;99728.34;;;13.58;60.43
16664;BME280;8445;51.270;9.434;2024-02-21T10:41:25;99711.28;;;13.59;59.65
16664;BME280;8445;51.270;9.434;2024-02-21T10:43:55;99712.09;;;13.53;59.20
16664;BME280;8445;51.270;9.434;2024-02-21T10:46:23;99705.72;;;13.54;58.73
16664;BME280;8445;51.270;9.434;2024-02-21T10:49:07;99700.16;;;13.56;59.03
16664;BME280;8445;51.270;9.434;2024-02-21T10:51:42;99696.47;;;13.57;58.41
16664;BME280;8445;51.270;9.434;2024-02-21T10:56:51;99698.09;;;13.58;59.19
16664;BME280;8445;51.270;9.434;2024-02-21T10:59:18;99692.13;;;13.56;58.86
16664;BME280;8445;51.270;9.434;2024-02-21T11:01:44;99665.97;;;13.45;58.57
16664;BME280;8445;51.270;9.434;2024-02-21T11:04:10;99675.44;;;13.47;58.50
16664;BME280;8445;51.270;9.434;2024-02-21T11:06:40;99654.03;;;13.47;59.14
16664;BME280;8445;51.270;9.434;2024-02-21T11:09:09;99642.50;;;13.47;59.16
16664;BME280;8445;51.270;9.434;2024-02-21T11:11:45;99662.69;;;13.69;58.73
16664;BME280;8445;51.270;9.434;2024-02-21T11:14:20;99653.63;;;13.70;58.16
16664;BME280;8445;51.270;9.434;2024-02-21T11:16:47;99650.97;;;13.64;58.41
16664;BME280;8445;51.270;9.434;2024-02-21T11:19:25;99640.03;;;13.58;57.67
16664;BME280;8445;51.270;9.434;2024-02-21T11:21:54;99642.72;;;13.45;58.84
16664;BME280;8445;51.270;9.434;2024-02-21T11:24:33;99644.16;;;13.35;58.73
16664;BME280;8445;51.270;9.434;2024-02-21T11:27:19;99643.31;;;13.21;58.23
16664;BME280;8445;51.270;9.434;2024-02-21T11:29:58;99632.34;;;13.02;58.71
16664;BME280;8445;51.270;9.434;2024-02-21T11:32:26;99635.22;;;12.94;58.75
16664;BME280;8445;51.270;9.434;2024-02-21T11:34:59;99626.78;;;12.91;59.11
16664;BME280;8445;51.270;9.434;2024-02-21T11:37:33;99616.28;;;12.89;58.59
16664;BME280;8445;51.270;9.434;2024-02-21T11:40:00;99610.09;;;12.76;58.77
16664;BME280;8445;51.270;9.434;2024-02-21T11:42:28;99602.88;;;12.69;58.95
16664;BME280;8445;51.270;9.434;2024-02-21T11:44:55;99600.63;;;12.73;58.89
16664;BME280;8445;51.270;9.434;2024-02-21T11:47:25;99585.63;;;12.72;58.70
16664;BME280;8445;51.270;9.434;2024-02-21T11:49:52;99573.28;;;12.71;58.47
16664;BME280;8445;51.270;9.434;2024-02-21T11:52:25;99570.81;;;12.76;58.58
16664;BME280;8445;51.270;9.434;2024-02-21T11:54:52;99570.84;;;12.83;58.60
16664;BME280;8445;51.270;9.434;2024-02-21T11:57:20;99567.34;;;12.82;58.53
16664;BME280;8445;51.270;9.434;2024-02-21T11:59:46;99570.03;;;12.82;58.43
16664;BME280;8445;51.270;9.434;2024-02-21T12:02:14;99555.19;;;12.80;58.43
16664;BME280;8445;51.270;9.434;2024-02-21T12:04:43;99564.69;;;12.82;58.06
16664;BME280;8445;51.270;9.434;2024-02-21T12:07:12;99552.75;;;12.85;58.19
16664;BME280;8445;51.270;9.434;2024-02-21T12:09:41;99550.47;;;12.88;57.83
16664;BME280;8445;51.270;9.434;2024-02-21T12:12:08;99549.47;;;12.89;57.68
16664;BME280;8445;51.270;9.434;2024-02-21T12:14:35;99533.41;;;12.89;57.60
16664;BME280;8445;51.270;9.434;2024-02-21T12:17:02;99522.13;;;13.00;57.17
16664;BME280;8445;51.270;9.434;2024-02-21T12:19:32;99530.13;;;13.14;56.96
16664;BME280;8445;51.270;9.434;2024-02-21T12:22:02;99516.78;;;13.27;56.62
16664;BME280;8445;51.270;9.434;2024-02-21T12:24:31;99509.56;;;13.34;56.65
16664;BME280;8445;51.270;9.434;2024-02-21T12:26:57;99490.44;;;13.37;57.40
16664;BME280;8445;51.270;9.434;2024-02-21T12:29:29;99502.53;;;13.59;58.51
16664;BME280;8445;51.270;9.434;2024-02-21T12:31:56;99482.94;;;13.72;58.44
16664;BME280;8445;51.270;9.434;2024-02-21T12:34:23;99496.22;;;13.99;57.71
16664;BME280;8445;51.270;9.434;2024-02-21T12:36:50;99477.19;;;14.13;57.94
16664;BME280;8445;51.270;9.434;2024-02-21T12:39:16;99484.88;;;14.41;58.26
16664;BME280;8445;51.270;9.434;2024-02-21T12:41:43;99476.41;;;14.51;56.90
16664;BME280;8445;51.270;9.434;2024-02-21T12:44:10;99484.56;;;14.63;56.74
16664;BME280;8445;51.270;9.434;2024-02-21T12:46:38;99489.69;;;14.71;57.10
16664;BME280;8445;51.270;9.434;2024-02-21T12:49:04;99488.56;;;14.78;56.25
16664;BME280;8445;51.270;9.434;2024-02-21T12:51:31;99487.16;;;14.76;55.21
16664;BME280;8445;51.270;9.434;2024-02-21T12:53:57;99471.75;;;14.65;55.42
16664;BME280;8445;51.270;9.434;2024-02-21T12:56:25;99488.88;;;14.64;55.37
16664;BME280;8445;51.270;9.434;2024-02-21T12:58:55;99497.22;;;14.56;54.97
16664;BME280;8445;51.270;9.434;2024-02-21T13:01:21;99489.84;;;14.44;54.70
16664;BME280;8445;51.270;9.434;2024-02-21T13:03:47;99478.53;;;14.36;55.39
16664;BME280;8445;51.270;9.434;2024-02-21T13:06:13;99474.97;;;14.42;54.98
16664;BME280;8445;51.270;9.434;2024-02-21T13:08:39;99469.41;;;14.43;55.03
16664;BME280;8445;51.270;9.434;2024-02-21T13:11:07;99471.69;;;14.46;55.09
16664;BME280;8445;51.270;9.434;2024-02-21T13:13:32;99460.97;;;14.40;55.13
16664;BME280;8445;51.270;9.434;2024-02-21T13:15:59;99463.88;;;14.38;54.76
16664;BME280;8445;51.270;9.434;2024-02-21T13:18:25;99452.78;;;14.35;54.75
16664;BME280;8445;51.270;9.434;2024-02-21T13:20:51;99455.66;;;14.33;54.71
16664;BME280;8445;51.270;9.434;2024-02-21T13:23:17;99432.03;;;14.24;54.60